createdAt,value
2023-11-20T00:02:06.717Z,12.45
2023-11-20T00:05:09.626Z,12.90
2023-11-20T00:08:11.905Z,13.05
2023-11-20T00:11:17.719Z,13.55
2023-11-20T00:14:20.113Z,12.85
2023-11-20T00:17:22.279Z,12.50
2023-11-20T00:20:24.577Z,12.48
2023-11-20T00:23:26.783Z,12.77
2023-11-20T00:26:29.044Z,11.83
2023-11-20T00:29:38.674Z,12.35
2023-11-20T00:32:41.022Z,12.07
2023-11-20T00:35:43.244Z,12.07
2023-11-20T00:38:46.273Z,11.73
2023-11-20T00:41:48.479Z,12.10
2023-11-20T00:44:50.726Z,11.98
2023-11-20T00:47:54.305Z,12.32
2023-11-20T00:50:58.008Z,11.45
2023-11-20T00:54:00.327Z,12.70
2023-11-20T00:57:03.436Z,11.27
2023-11-20T01:00:10.004Z,12.45
2023-11-20T01:03:12.454Z,11.18
2023-11-20T01:06:14.828Z,11.60
2023-11-20T01:09:17.325Z,11.30
2023-11-20T01:12:19.639Z,11.73
2023-11-20T01:15:21.992Z,11.55
2023-11-20T01:18:24.578Z,12.00
2023-11-20T01:21:26.781Z,11.40
2023-11-20T01:24:29.056Z,11.32
2023-11-20T01:27:31.301Z,10.90
2023-11-20T01:30:33.681Z,11.57
2023-11-20T01:33:35.948Z,10.18
2023-11-20T01:36:38.844Z,11.27
2023-11-20T01:39:41.588Z,11.13
2023-11-20T01:42:43.987Z,10.48
2023-11-20T01:45:47.680Z,10.52
2023-11-20T01:48:49.972Z,11.07
2023-11-20T01:51:52.818Z,11.07
2023-11-20T01:54:55.229Z,11.02
2023-11-20T01:57:57.613Z,11.13
2023-11-20T02:01:00.056Z,11.15
2023-11-20T02:04:04.110Z,11.48
2023-11-20T02:07:09.103Z,11.80
2023-11-20T02:10:12.074Z,11.23
2023-11-20T02:13:16.081Z,11.15
2023-11-20T02:16:18.386Z,10.90
2023-11-20T02:19:21.020Z,11.70
2023-11-20T02:22:23.257Z,11.10
2023-11-20T02:25:25.547Z,11.27
2023-11-20T02:28:29.289Z,11.80
2023-11-20T02:31:34.398Z,13.23
2023-11-20T02:34:37.438Z,11.90
2023-11-20T02:37:40.877Z,12.37
2023-11-20T02:40:43.085Z,10.85
2023-11-20T02:43:45.896Z,11.45
2023-11-20T02:46:48.132Z,11.93
2023-11-20T02:49:50.359Z,11.55
2023-11-20T02:52:53.555Z,11.93
2023-11-20T02:55:57.389Z,12.15
2023-11-20T02:58:59.685Z,10.80
2023-11-20T03:02:02.786Z,12.32
2023-11-20T03:05:08.921Z,11.25
2023-11-20T03:08:12.213Z,10.37
2023-11-20T03:11:15.211Z,11.80
2023-11-20T03:14:17.501Z,11.70
2023-11-20T03:17:19.760Z,12.90
2023-11-20T03:20:23.054Z,11.30
2023-11-20T03:23:25.594Z,11.88
2023-11-20T03:26:27.965Z,12.15
2023-11-20T03:29:30.417Z,12.07
2023-11-20T03:32:32.662Z,13.20
2023-11-20T03:35:34.877Z,12.43
2023-11-20T03:38:37.438Z,12.53
2023-11-20T03:41:39.633Z,12.15
2023-11-20T03:44:41.841Z,12.38
2023-11-20T03:47:44.125Z,12.60
2023-11-20T03:50:46.375Z,12.73
2023-11-20T03:53:48.542Z,12.80
2023-11-20T03:56:51.795Z,12.70
2023-11-20T03:59:53.989Z,12.23
2023-11-20T04:02:56.400Z,12.18
2023-11-20T04:06:00.954Z,11.32
2023-11-20T04:09:04.311Z,11.70
2023-11-20T04:12:07.247Z,11.70
2023-11-20T04:15:09.839Z,10.68
2023-11-20T04:18:12.127Z,12.02
2023-11-20T04:21:14.751Z,10.77
2023-11-20T04:24:17.937Z,10.55
2023-11-20T04:27:20.091Z,10.82
2023-11-20T04:30:23.335Z,11.03
2023-11-20T04:33:26.384Z,11.18
2023-11-20T04:36:29.083Z,11.93
2023-11-20T04:39:34.228Z,11.60
2023-11-20T04:42:36.451Z,11.60
2023-11-20T04:45:38.715Z,12.77
2023-11-20T04:48:41.028Z,12.07
2023-11-20T04:51:43.329Z,12.65
2023-11-20T04:54:45.596Z,12.20
2023-11-20T04:57:47.984Z,12.63
2023-11-20T05:00:51.213Z,11.23
2023-11-20T05:03:53.699Z,12.50
2023-11-20T05:06:55.951Z,12.70
2023-11-20T05:09:58.617Z,12.03
2023-11-20T05:13:01.096Z,12.35
2023-11-20T05:16:03.531Z,11.60
2023-11-20T05:19:05.853Z,12.70
2023-11-20T05:22:08.059Z,12.75
2023-11-20T05:25:10.663Z,12.73
2023-11-20T05:28:13.052Z,13.05
2023-11-20T05:31:15.374Z,12.90
2023-11-20T05:34:18.058Z,13.63
2023-11-20T05:37:20.285Z,14.52
2023-11-20T05:40:22.804Z,12.77
2023-11-20T05:43:25.126Z,13.05
2023-11-20T05:46:27.574Z,13.38
2023-11-20T05:49:29.753Z,13.20
2023-11-20T05:52:33.607Z,12.77
2023-11-20T05:55:35.770Z,13.40
2023-11-20T05:58:37.931Z,13.30
2023-11-20T06:01:40.942Z,14.00
2023-11-20T06:04:43.411Z,12.52
2023-11-20T06:07:45.653Z,12.95
2023-11-20T06:10:47.829Z,12.87
2023-11-20T06:13:50.382Z,12.65
2023-11-20T06:16:52.666Z,12.52
2023-11-20T06:19:57.790Z,12.93
2023-11-20T06:23:00.209Z,13.50
2023-11-20T06:26:03.133Z,12.90
2023-11-20T06:29:05.399Z,13.68
2023-11-20T06:32:08.064Z,13.67
2023-11-20T06:35:10.509Z,13.70
2023-11-20T06:38:13.345Z,14.07
2023-11-20T06:41:18.908Z,13.53
2023-11-20T06:44:22.887Z,14.15
2023-11-20T06:47:25.741Z,13.13
2023-11-20T06:50:29.196Z,13.25
2023-11-20T06:53:34.584Z,14.05
2023-11-20T06:56:37.286Z,14.23
2023-11-20T06:59:39.601Z,13.93
2023-11-20T07:02:57.045Z,14.50
2023-11-20T07:06:46.018Z,13.38
2023-11-20T07:13:40.391Z,14.80
2023-11-20T07:16:42.950Z,14.35
2023-11-20T07:19:45.443Z,14.20
2023-11-20T07:22:47.759Z,14.90
2023-11-20T07:25:50.176Z,15.85
2023-11-20T07:28:52.368Z,16.58
2023-11-20T07:31:54.844Z,15.90
2023-11-20T07:34:57.134Z,16.50
2023-11-20T07:37:59.296Z,17.67
2023-11-20T07:41:03.364Z,18.48
2023-11-20T07:44:05.618Z,19.37
2023-11-20T07:47:07.984Z,18.58
2023-11-20T07:50:12.217Z,19.00
2023-11-20T07:53:14.430Z,20.30
2023-11-20T07:56:18.535Z,19.48
2023-11-20T07:59:21.065Z,18.45
2023-11-20T08:02:26.513Z,18.45
2023-11-20T08:05:44.381Z,18.50
2023-11-20T08:09:01.622Z,19.70
2023-11-20T08:12:05.657Z,18.33
2023-11-20T08:15:13.703Z,17.90
2023-11-20T08:18:16.755Z,18.27
2023-11-20T08:21:19.515Z,17.73
2023-11-20T08:24:22.876Z,18.77
2023-11-20T08:27:25.212Z,18.55
2023-11-20T08:30:31.199Z,18.73
2023-11-20T08:33:35.427Z,18.40
2023-11-20T08:36:38.085Z,19.27
2023-11-20T08:39:41.123Z,20.40
2023-11-20T08:42:43.481Z,21.30
2023-11-20T08:45:46.695Z,19.33
2023-11-20T08:48:49.117Z,18.60
2023-11-20T08:51:59.070Z,18.85
2023-11-20T08:55:06.332Z,19.17
2023-11-20T08:58:09.541Z,19.10
2023-11-20T09:01:11.981Z,19.33
2023-11-20T09:04:14.545Z,16.98
2023-11-20T09:07:16.858Z,17.23
2023-11-20T09:10:24.186Z,17.17
2023-11-20T09:13:26.611Z,16.58
2023-11-20T09:16:29.089Z,16.90
2023-11-20T09:19:31.485Z,15.43
2023-11-20T09:22:33.658Z,15.73
2023-11-20T09:25:40.278Z,15.35
2023-11-20T09:28:43.472Z,13.88
2023-11-20T09:31:49.110Z,13.85
2023-11-20T09:34:51.699Z,13.27
2023-11-20T09:37:54.012Z,13.20
2023-11-20T09:40:59.874Z,13.35
2023-11-20T09:44:02.858Z,12.90
2023-11-20T09:47:07.764Z,12.93
2023-11-20T09:50:12.170Z,11.63
2023-11-20T09:53:23.094Z,11.98
2023-11-20T09:56:29.905Z,11.82
2023-11-20T09:59:33.313Z,11.65
2023-11-20T10:02:36.869Z,11.05
2023-11-20T10:05:42.104Z,11.60
2023-11-20T10:08:45.483Z,10.00
2023-11-20T10:11:49.678Z,10.35
2023-11-20T10:14:51.935Z,11.00
2023-11-20T10:17:54.299Z,11.50
2023-11-20T10:20:59.490Z,11.35
2023-11-20T10:24:02.540Z,8.77
2023-11-20T10:27:07.105Z,8.27
2023-11-20T10:30:10.876Z,7.68
2023-11-20T10:33:20.888Z,7.38
2023-11-20T10:36:23.365Z,6.75
2023-11-20T10:39:26.476Z,7.13
2023-11-20T10:42:29.342Z,6.40
2023-11-20T10:45:34.208Z,5.95
2023-11-20T10:48:40.405Z,5.97
2023-11-20T10:51:49.744Z,5.40
2023-11-20T10:54:54.256Z,4.90
2023-11-20T10:57:57.372Z,4.32
2023-11-20T11:01:00.035Z,3.30
2023-11-20T11:04:03.040Z,2.60
2023-11-20T11:07:06.873Z,2.65
2023-11-20T11:10:11.857Z,2.30
2023-11-20T11:13:19.583Z,2.30
2023-11-20T11:16:52.415Z,1.55
2023-11-20T11:20:03.160Z,1.63
2023-11-20T11:23:09.517Z,1.45
2023-11-20T11:26:31.643Z,1.40
2023-11-20T11:29:41.343Z,1.52
2023-11-20T11:33:26.072Z,1.50
2023-11-20T11:36:50.704Z,1.60
2023-11-20T11:40:01.188Z,1.20
2023-11-20T11:43:19.236Z,1.37
2023-11-20T11:46:21.658Z,1.50
2023-11-20T11:49:24.618Z,1.38
2023-11-20T11:52:31.468Z,1.20
2023-11-20T11:55:41.397Z,1.50
2023-11-20T11:58:46.296Z,1.73
2023-11-20T12:01:52.860Z,2.60
2023-11-20T12:04:56.315Z,2.13
2023-11-20T12:07:59.952Z,2.15
2023-11-20T12:11:02.349Z,2.70
2023-11-20T12:14:10.675Z,2.57
2023-11-20T12:17:15.930Z,2.65
2023-11-20T12:20:18.342Z,2.90
2023-11-20T12:23:23.964Z,3.70
2023-11-20T12:26:26.542Z,3.20
2023-11-20T12:29:32.232Z,3.13
2023-11-20T12:32:35.756Z,2.97
2023-11-20T12:35:38.133Z,3.42
2023-11-20T12:38:47.503Z,3.15
2023-11-20T12:41:52.423Z,2.85
2023-11-20T12:44:54.759Z,2.73
2023-11-20T12:51:23.129Z,3.10
2023-11-20T12:54:28.050Z,2.90
2023-11-20T12:57:32.010Z,2.42
2023-11-20T13:00:34.300Z,2.90
2023-11-20T13:03:37.382Z,2.88
2023-11-20T13:06:41.099Z,2.67
2023-11-20T13:10:07.592Z,3.20
2023-11-20T13:13:12.947Z,3.28
2023-11-20T13:16:19.769Z,3.23
2023-11-20T13:19:42.531Z,2.90
2023-11-20T13:22:45.214Z,3.00
2023-11-20T13:25:52.673Z,2.60
2023-11-20T13:28:55.440Z,3.35
2023-11-20T13:31:57.793Z,3.55
2023-11-20T13:35:00.003Z,3.70
2023-11-20T13:38:04.345Z,3.58
2023-11-20T13:41:09.984Z,4.18
2023-11-20T13:44:12.385Z,3.42
2023-11-20T13:47:14.737Z,3.47
2023-11-20T13:50:16.968Z,3.15
2023-11-20T13:53:21.651Z,3.78
2023-11-20T13:56:24.822Z,4.50
2023-11-20T13:59:27.030Z,3.50
2023-11-20T14:02:29.326Z,3.60
2023-11-20T14:05:31.633Z,4.40
2023-11-20T14:08:34.949Z,3.75
2023-11-20T14:11:37.429Z,4.05
2023-11-20T14:14:40.488Z,3.90
2023-11-20T14:17:44.046Z,3.33
2023-11-20T14:20:46.254Z,3.78
2023-11-20T14:23:48.796Z,3.40
2023-11-20T14:26:50.956Z,3.93
2023-11-20T14:29:56.399Z,3.08
2023-11-20T14:32:59.502Z,2.78
2023-11-20T14:36:01.784Z,2.38
2023-11-20T14:39:04.032Z,2.08
2023-11-20T14:42:07.454Z,2.20
2023-11-20T14:45:13.995Z,1.77
2023-11-20T14:48:17.090Z,1.73
2023-11-20T14:51:21.835Z,1.60
2023-11-20T14:54:24.328Z,1.20
2023-11-20T14:57:26.521Z,1.73
2023-11-20T15:00:29.503Z,1.88
2023-11-20T15:03:31.898Z,1.70
2023-11-20T15:06:34.285Z,1.63
2023-11-20T15:09:38.323Z,1.75
2023-11-20T15:12:42.142Z,1.63
2023-11-20T15:15:44.368Z,1.55
2023-11-20T15:18:48.166Z,1.37
2023-11-20T15:21:50.645Z,1.98
2023-11-20T15:24:52.950Z,1.70
2023-11-20T15:27:55.297Z,1.77
2023-11-20T15:30:57.580Z,1.50
2023-11-20T15:33:59.908Z,1.83
2023-11-20T15:37:02.150Z,1.80
2023-11-20T15:40:06.972Z,1.20
2023-11-20T15:43:11.786Z,2.10
2023-11-20T15:46:15.677Z,1.77
2023-11-20T15:49:18.716Z,2.00
2023-11-20T15:52:21.386Z,1.98
2023-11-20T15:55:23.603Z,1.60
2023-11-20T15:58:25.814Z,1.63
2023-11-20T16:01:33.711Z,1.70
2023-11-20T16:04:40.685Z,1.90
2023-11-20T16:07:43.137Z,1.83
2023-11-20T16:10:45.490Z,1.85
2023-11-20T16:13:47.733Z,1.45
2023-11-20T16:16:51.315Z,1.92
2023-11-20T16:19:53.615Z,1.80
2023-11-20T16:22:55.943Z,2.08
2023-11-20T16:25:58.172Z,1.90
2023-11-20T16:29:00.402Z,1.83
2023-11-20T16:32:04.281Z,2.58
2023-11-20T16:35:07.270Z,2.22
2023-11-20T16:38:09.476Z,2.10
2023-11-20T16:41:11.733Z,2.10
2023-11-20T16:44:19.187Z,1.92
2023-11-20T16:47:21.540Z,2.65
2023-11-20T16:50:23.769Z,2.70
2023-11-20T16:53:26.159Z,3.30
2023-11-20T16:56:32.930Z,4.60
2023-11-20T16:59:35.179Z,3.80
2023-11-20T17:02:37.666Z,4.40
2023-11-20T17:05:40.373Z,5.30
2023-11-20T17:08:44.306Z,5.38
2023-11-20T17:11:46.475Z,5.18
2023-11-20T17:14:48.659Z,5.97
2023-11-20T17:17:50.825Z,5.35
2023-11-20T17:20:53.396Z,5.37
2023-11-20T17:23:55.541Z,4.93
2023-11-20T17:26:58.121Z,5.50
2023-11-20T17:30:02.050Z,5.53
2023-11-20T17:33:06.113Z,6.45
2023-11-20T17:36:15.593Z,5.57
2023-11-20T17:39:17.788Z,5.43
2023-11-20T17:42:19.940Z,5.53
2023-11-20T17:45:22.207Z,5.75
2023-11-20T17:48:26.211Z,5.47
2023-11-20T17:51:28.849Z,5.87
2023-11-20T17:54:32.353Z,5.75
2023-11-20T17:57:35.095Z,5.88
2023-11-20T18:00:38.020Z,5.70
2023-11-20T18:03:40.411Z,5.80
2023-11-20T18:06:42.717Z,5.38
2023-11-20T18:09:44.914Z,5.40
2023-11-20T18:12:47.141Z,6.25
2023-11-20T18:15:50.579Z,6.05
2023-11-20T18:18:52.999Z,5.22
2023-11-20T18:21:55.229Z,4.50
2023-11-20T18:24:57.464Z,5.32
2023-11-20T18:27:59.821Z,5.38
2023-11-20T18:31:02.064Z,5.47
2023-11-20T18:34:04.790Z,5.63
2023-11-20T18:37:07.029Z,5.28
2023-11-20T18:40:15.330Z,5.07
2023-11-20T18:43:18.924Z,5.13
2023-11-20T18:46:21.328Z,5.05
2023-11-20T18:49:23.614Z,5.05
2023-11-20T18:52:25.833Z,5.20
2023-11-20T18:55:28.115Z,4.68
2023-11-20T18:58:30.342Z,4.90
2023-11-20T19:01:32.640Z,4.73
2023-11-20T19:04:35.020Z,4.55
2023-11-20T19:07:37.539Z,4.43
2023-11-20T19:10:43.909Z,4.03
2023-11-20T19:13:46.250Z,4.40
2023-11-20T19:16:48.630Z,3.80
2023-11-20T19:19:50.858Z,3.63
2023-11-20T19:22:53.061Z,3.67
2023-11-20T19:25:55.212Z,3.92
2023-11-20T19:29:00.415Z,3.45
2023-11-20T19:32:02.584Z,3.63
2023-11-20T19:35:05.784Z,3.83
2023-11-20T19:38:09.706Z,3.83
2023-11-20T19:41:12.462Z,4.30
2023-11-20T19:44:14.666Z,4.30
2023-11-20T19:47:16.957Z,4.45
2023-11-20T19:50:19.274Z,4.80
2023-11-20T19:53:24.561Z,4.50
2023-11-20T19:56:26.837Z,4.60
2023-11-20T19:59:29.649Z,4.93
2023-11-20T20:02:32.035Z,5.47
2023-11-20T20:05:34.217Z,4.60
2023-11-20T20:08:36.421Z,4.93
2023-11-20T20:11:38.874Z,4.00
2023-11-20T20:14:42.501Z,4.38
2023-11-20T20:17:46.647Z,4.00
2023-11-20T20:20:48.950Z,4.63
2023-11-20T20:23:53.161Z,4.87
2023-11-20T20:26:56.243Z,4.72
2023-11-20T20:29:58.577Z,5.40
2023-11-20T20:33:00.838Z,5.40
2023-11-20T20:36:03.159Z,5.18
2023-11-20T20:39:06.637Z,5.18
2023-11-20T20:42:09.562Z,5.00
2023-11-20T20:45:11.770Z,5.22
2023-11-20T20:48:13.949Z,5.85
2023-11-20T20:51:16.217Z,4.95
2023-11-20T20:54:20.201Z,5.57
2023-11-20T20:57:24.942Z,6.75
2023-11-20T21:00:27.347Z,8.43
2023-11-20T21:03:34.261Z,9.00
2023-11-20T21:06:36.994Z,9.30
2023-11-20T21:09:39.221Z,10.05
2023-11-20T21:12:41.481Z,10.82
2023-11-20T21:15:44.607Z,11.25
2023-11-20T21:18:46.779Z,12.73
2023-11-20T21:21:49.007Z,11.80
2023-11-20T21:24:51.182Z,12.47
2023-11-20T21:27:53.365Z,12.18
2023-11-20T21:30:56.026Z,12.88
2023-11-20T21:33:58.814Z,11.87
2023-11-20T21:37:01.045Z,12.60
2023-11-20T21:40:05.909Z,11.00
2023-11-20T21:43:08.721Z,12.50
2023-11-20T21:46:11.189Z,10.70
2023-11-20T21:49:13.529Z,11.80
2023-11-20T21:52:15.791Z,12.13
2023-11-20T21:55:18.037Z,11.40
2023-11-20T21:58:20.284Z,12.30
2023-11-20T22:01:23.951Z,12.02
2023-11-20T22:04:26.208Z,12.47
2023-11-20T22:07:28.459Z,12.10
2023-11-20T22:10:31.157Z,11.38
2023-11-20T22:13:33.739Z,12.85
2023-11-20T22:16:35.984Z,13.05
2023-11-20T22:19:38.308Z,13.20
2023-11-20T22:22:41.623Z,12.43
2023-11-20T22:25:44.203Z,12.40
2023-11-20T22:28:48.552Z,12.95
2023-11-20T22:31:51.246Z,12.60
2023-11-20T22:35:09.615Z,12.47
2023-11-20T22:38:15.638Z,12.38
2023-11-20T22:41:17.880Z,12.77
2023-11-20T22:44:20.101Z,12.40
2023-11-20T22:47:22.553Z,13.65
2023-11-20T22:50:25.228Z,13.02
2023-11-20T22:53:27.821Z,12.82
2023-11-20T22:56:31.093Z,11.73
2023-11-20T22:59:33.267Z,12.85
2023-11-20T23:02:36.172Z,11.63
2023-11-20T23:05:42.845Z,13.43
2023-11-20T23:08:45.830Z,12.48
2023-11-20T23:11:48.043Z,10.95
2023-11-20T23:14:50.210Z,11.70
2023-11-20T23:17:52.558Z,12.07
2023-11-20T23:20:55.003Z,12.93
2023-11-20T23:23:57.367Z,12.13
2023-11-20T23:26:59.566Z,12.50
2023-11-20T23:30:04.206Z,10.85
2023-11-20T23:33:06.591Z,11.13
2023-11-20T23:36:09.960Z,11.80
2023-11-20T23:39:12.111Z,9.93
2023-11-20T23:42:17.812Z,10.40
2023-11-20T23:45:20.144Z,8.30
2023-11-20T23:48:23.625Z,8.18
2023-11-20T23:51:26.193Z,8.18
2023-11-20T23:54:28.460Z,7.47
2023-11-20T23:57:30.779Z,6.87
